sensor_id;sensor_type;location;lat;lon;timestamp;P1;durP1;ratioP1;P2;durP2;ratioP2
7001;SDS011;3541;53.230;10.518;2022-09-09T00:02:10;14.18;;;11.35;;
7001;SDS011;3541;53.230;10.518;2022-09-09T00:04:45;15.90;;;12.23;;
7001;SDS011;3541;53.230;10.518;2022-09-09T00:07:21;13.65;;;11.50;;
7001;SDS011;3541;53.230;10.518;2022-09-09T00:09:58;17.65;;;11.40;;
7001;SDS011;3541;53.230;10.518;2022-09-09T00:12:36;13.02;;;11.02;;
7001;SDS011;3541;53.230;10.518;2022-09-09T00:15:14;13.23;;;11.32;;
7001;SDS011;3541;53.230;10.518;2022-09-09T00:17:47;13.80;;;11.80;;
7001;SDS011;3541;53.230;10.518;2022-09-09T00:20:20;12.82;;;11.25;;
7001;SDS011;3541;53.230;10.518;2022-09-09T00:22:54;13.77;;;11.52;;
7001;SDS011;3541;53.230;10.518;2022-09-09T00:25:28;13.25;;;11.85;;
7001;SDS011;3541;53.230;10.518;2022-09-09T00:27:59;13.65;;;11.15;;
7001;SDS011;3541;53.230;10.518;2022-09-09T00:30:27;13.27;;;10.73;;
7001;SDS011;3541;53.230;10.518;2022-09-09T00:33:03;13.02;;;10.70;;
7001;SDS011;3541;53.230;10.518;2022-09-09T00:35:41;11.65;;;10.23;;
7001;SDS011;3541;53.230;10.518;2022-09-09T00:38:12;12.98;;;10.20;;
7001;SDS011;3541;53.230;10.518;2022-09-09T00:40:41;11.07;;;9.63;;
7001;SDS011;3541;53.230;10.518;2022-09-09T00:43:19;12.30;;;10.95;;
7001;SDS011;3541;53.230;10.518;2022-09-09T00:49:02;14.05;;;11.43;;
7001;SDS011;3541;53.230;10.518;2022-09-09T00:51:38;14.18;;;11.40;;
7001;SDS011;3541;53.230;10.518;2022-09-09T00:54:17;12.40;;;10.85;;
7001;SDS011;3541;53.230;10.518;2022-09-09T00:56:53;13.05;;;11.13;;
7001;SDS011;3541;53.230;10.518;2022-09-09T00:59:32;14.20;;;11.00;;
7001;SDS011;3541;53.230;10.518;2022-09-09T01:02:07;15.77;;;12.07;;
7001;SDS011;3541;53.230;10.518;2022-09-09T01:04:43;16.55;;;11.57;;
7001;SDS011;3541;53.230;10.518;2022-09-09T01:07:12;12.77;;;11.13;;
7001;SDS011;3541;53.230;10.518;2022-09-09T01:09:45;15.38;;;11.82;;
7001;SDS011;3541;53.230;10.518;2022-09-09T01:12:23;15.57;;;11.95;;
7001;SDS011;3541;53.230;10.518;2022-09-09T01:14:53;15.45;;;12.18;;
7001;SDS011;3541;53.230;10.518;2022-09-09T01:17:30;14.90;;;13.18;;
7001;SDS011;3541;53.230;10.518;2022-09-09T01:20:04;17.65;;;12.90;;
7001;SDS011;3541;53.230;10.518;2022-09-09T01:22:37;19.30;;;12.68;;
7001;SDS011;3541;53.230;10.518;2022-09-09T01:25:18;17.67;;;13.75;;
7001;SDS011;3541;53.230;10.518;2022-09-09T01:27:50;15.35;;;13.45;;
7001;SDS011;3541;53.230;10.518;2022-09-09T01:30:19;18.52;;;14.40;;
7001;SDS011;3541;53.230;10.518;2022-09-09T01:32:48;17.45;;;14.25;;
7001;SDS011;3541;53.230;10.518;2022-09-09T01:35:19;17.95;;;13.43;;
7001;SDS011;3541;53.230;10.518;2022-09-09T01:37:55;17.92;;;13.55;;
7001;SDS011;3541;53.230;10.518;2022-09-09T01:40:23;16.85;;;13.30;;
7001;SDS011;3541;53.230;10.518;2022-09-09T01:42:52;16.30;;;13.32;;
7001;SDS011;3541;53.230;10.518;2022-09-09T01:45:20;17.30;;;13.32;;
7001;SDS011;3541;53.230;10.518;2022-09-09T01:47:48;16.25;;;13.00;;
7001;SDS011;3541;53.230;10.518;2022-09-09T01:50:15;15.00;;;12.90;;
7001;SDS011;3541;53.230;10.518;2022-09-09T01:52:43;16.30;;;13.05;;
7001;SDS011;3541;53.230;10.518;2022-09-09T01:55:12;15.35;;;13.00;;
7001;SDS011;3541;53.230;10.518;2022-09-09T01:57:41;16.75;;;13.15;;
7001;SDS011;3541;53.230;10.518;2022-09-09T02:00:14;17.75;;;14.02;;
7001;SDS011;3541;53.230;10.518;2022-09-09T02:02:43;16.65;;;12.82;;
7001;SDS011;3541;53.230;10.518;2022-09-09T02:05:17;16.00;;;13.40;;
7001;SDS011;3541;53.230;10.518;2022-09-09T02:07:55;14.20;;;12.25;;
7001;SDS011;3541;53.230;10.518;2022-09-09T02:10:28;16.65;;;12.15;;
7001;SDS011;3541;53.230;10.518;2022-09-09T02:13:01;14.27;;;11.82;;
7001;SDS011;3541;53.230;10.518;2022-09-09T02:15:32;15.00;;;11.90;;
7001;SDS011;3541;53.230;10.518;2022-09-09T02:18:02;13.82;;;11.50;;
7001;SDS011;3541;53.230;10.518;2022-09-09T02:20:34;14.85;;;11.15;;
7001;SDS011;3541;53.230;10.518;2022-09-09T02:23:02;14.27;;;11.60;;
7001;SDS011;3541;53.230;10.518;2022-09-09T02:25:32;13.73;;;12.23;;
7001;SDS011;3541;53.230;10.518;2022-09-09T02:28:02;14.13;;;11.20;;
7001;SDS011;3541;53.230;10.518;2022-09-09T02:30:32;12.23;;;10.52;;
7001;SDS011;3541;53.230;10.518;2022-09-09T02:33:01;14.65;;;11.82;;
7001;SDS011;3541;53.230;10.518;2022-09-09T02:35:31;14.20;;;11.10;;
7001;SDS011;3541;53.230;10.518;2022-09-09T02:38:02;12.60;;;11.25;;
7001;SDS011;3541;53.230;10.518;2022-09-09T02:40:33;14.90;;;10.90;;
7001;SDS011;3541;53.230;10.518;2022-09-09T02:43:00;14.90;;;11.15;;
7001;SDS011;3541;53.230;10.518;2022-09-09T02:45:29;13.18;;;10.27;;
7001;SDS011;3541;53.230;10.518;2022-09-09T02:48:04;14.32;;;10.70;;
7001;SDS011;3541;53.230;10.518;2022-09-09T02:50:38;11.90;;;10.70;;
7001;SDS011;3541;53.230;10.518;2022-09-09T02:53:14;11.88;;;10.10;;
7001;SDS011;3541;53.230;10.518;2022-09-09T02:55:45;11.32;;;10.13;;
7001;SDS011;3541;53.230;10.518;2022-09-09T02:58:14;12.45;;;10.63;;
7001;SDS011;3541;53.230;10.518;2022-09-09T03:00:45;12.95;;;10.35;;
7001;SDS011;3541;53.230;10.518;2022-09-09T03:03:12;11.23;;;9.90;;
7001;SDS011;3541;53.230;10.518;2022-09-09T03:05:41;12.15;;;9.63;;
7001;SDS011;3541;53.230;10.518;2022-09-09T03:08:08;12.30;;;10.25;;
7001;SDS011;3541;53.230;10.518;2022-09-09T03:10:35;12.48;;;9.93;;
7001;SDS011;3541;53.230;10.518;2022-09-09T03:13:02;11.93;;;9.43;;
7001;SDS011;3541;53.230;10.518;2022-09-09T03:15:30;11.13;;;9.40;;
7001;SDS011;3541;53.230;10.518;2022-09-09T03:17:59;10.70;;;9.00;;
7001;SDS011;3541;53.230;10.518;2022-09-09T03:20:27;10.45;;;9.40;;
7001;SDS011;3541;53.230;10.518;2022-09-09T03:22:54;11.25;;;9.07;;
7001;SDS011;3541;53.230;10.518;2022-09-09T03:25:22;10.05;;;8.82;;
7001;SDS011;3541;53.230;10.518;2022-09-09T03:27:49;9.48;;;8.52;;
7001;SDS011;3541;53.230;10.518;2022-09-09T03:30:18;9.60;;;8.60;;
7001;SDS011;3541;53.230;10.518;2022-09-09T03:32:44;9.68;;;8.48;;
7001;SDS011;3541;53.230;10.518;2022-09-09T03:35:12;9.57;;;8.15;;
7001;SDS011;3541;53.230;10.518;2022-09-09T03:37:40;10.35;;;8.57;;
7001;SDS011;3541;53.230;10.518;2022-09-09T03:40:07;8.45;;;7.57;;
7001;SDS011;3541;53.230;10.518;2022-09-09T03:42:35;7.82;;;7.03;;
7001;SDS011;3541;53.230;10.518;2022-09-09T03:45:02;8.60;;;7.57;;
7001;SDS011;3541;53.230;10.518;2022-09-09T03:47:30;10.30;;;8.18;;
7001;SDS011;3541;53.230;10.518;2022-09-09T03:49:56;9.02;;;7.53;;
7001;SDS011;3541;53.230;10.518;2022-09-09T03:52:24;7.70;;;6.90;;
7001;SDS011;3541;53.230;10.518;2022-09-09T03:54:51;8.10;;;7.30;;
7001;SDS011;3541;53.230;10.518;2022-09-09T03:57:18;7.90;;;7.10;;
7001;SDS011;3541;53.230;10.518;2022-09-09T03:59:45;6.85;;;6.15;;
7001;SDS011;3541;53.230;10.518;2022-09-09T04:02:11;7.10;;;6.40;;
7001;SDS011;3541;53.230;10.518;2022-09-09T04:04:38;8.65;;;6.32;;
7001;SDS011;3541;53.230;10.518;2022-09-09T04:07:04;7.10;;;6.35;;
7001;SDS011;3541;53.230;10.518;2022-09-09T04:09:33;8.30;;;6.68;;
7001;SDS011;3541;53.230;10.518;2022-09-09T04:12:00;9.88;;;6.47;;
7001;SDS011;3541;53.230;10.518;2022-09-09T04:14:27;7.38;;;6.30;;
7001;SDS011;3541;53.230;10.518;2022-09-09T04:16:54;9.25;;;6.00;;
7001;SDS011;3541;53.230;10.518;2022-09-09T04:19:22;6.93;;;5.73;;
7001;SDS011;3541;53.230;10.518;2022-09-09T04:21:48;7.17;;;5.80;;
7001;SDS011;3541;53.230;10.518;2022-09-09T04:24:16;7.55;;;5.75;;
7001;SDS011;3541;53.230;10.518;2022-09-09T04:26:45;6.35;;;5.63;;
7001;SDS011;3541;53.230;10.518;2022-09-09T04:29:12;6.47;;;5.53;;
7001;SDS011;3541;53.230;10.518;2022-09-09T04:31:38;5.65;;;5.00;;
7001;SDS011;3541;53.230;10.518;2022-09-09T04:34:06;5.53;;;5.03;;
7001;SDS011;3541;53.230;10.518;2022-09-09T04:36:33;5.63;;;5.00;;
7001;SDS011;3541;53.230;10.518;2022-09-09T04:39:00;7.25;;;4.88;;
7001;SDS011;3541;53.230;10.518;2022-09-09T04:41:27;5.35;;;4.85;;
7001;SDS011;3541;53.230;10.518;2022-09-09T04:43:56;6.95;;;4.35;;
7001;SDS011;3541;53.230;10.518;2022-09-09T04:46:22;4.68;;;4.20;;
7001;SDS011;3541;53.230;10.518;2022-09-09T04:48:50;6.43;;;4.88;;
7001;SDS011;3541;53.230;10.518;2022-09-09T04:51:18;6.10;;;4.72;;
7001;SDS011;3541;53.230;10.518;2022-09-09T04:53:45;5.70;;;4.28;;
7001;SDS011;3541;53.230;10.518;2022-09-09T04:56:13;5.72;;;4.47;;
7001;SDS011;3541;53.230;10.518;2022-09-09T04:58:41;7.25;;;4.63;;
7001;SDS011;3541;53.230;10.518;2022-09-09T05:01:10;5.80;;;3.92;;
7001;SDS011;3541;53.230;10.518;2022-09-09T05:03:38;5.82;;;4.05;;
7001;SDS011;3541;53.230;10.518;2022-09-09T05:06:05;6.25;;;4.30;;
7001;SDS011;3541;53.230;10.518;2022-09-09T05:08:34;4.70;;;4.13;;
7001;SDS011;3541;53.230;10.518;2022-09-09T05:11:01;6.63;;;4.30;;
7001;SDS011;3541;53.230;10.518;2022-09-09T05:13:28;4.82;;;3.72;;
7001;SDS011;3541;53.230;10.518;2022-09-09T05:15:56;6.70;;;3.85;;
7001;SDS011;3541;53.230;10.518;2022-09-09T05:18:24;4.50;;;4.10;;
7001;SDS011;3541;53.230;10.518;2022-09-09T05:20:51;6.63;;;4.20;;
7001;SDS011;3541;53.230;10.518;2022-09-09T05:23:18;5.07;;;4.30;;
7001;SDS011;3541;53.230;10.518;2022-09-09T05:25:53;5.55;;;4.53;;
7001;SDS011;3541;53.230;10.518;2022-09-09T05:28:21;3.65;;;3.35;;
7001;SDS011;3541;53.230;10.518;2022-09-09T05:30:54;3.75;;;3.42;;
7001;SDS011;3541;53.230;10.518;2022-09-09T05:33:22;4.78;;;3.92;;
7001;SDS011;3541;53.230;10.518;2022-09-09T05:35:55;4.07;;;3.40;;
7001;SDS011;3541;53.230;10.518;2022-09-09T05:38:26;4.03;;;3.63;;
7001;SDS011;3541;53.230;10.518;2022-09-09T05:40:54;5.53;;;3.45;;
7001;SDS011;3541;53.230;10.518;2022-09-09T05:43:22;5.55;;;3.42;;
7001;SDS011;3541;53.230;10.518;2022-09-09T05:45:58;3.60;;;3.20;;
7001;SDS011;3541;53.230;10.518;2022-09-09T05:48:27;9.15;;;3.75;;
7001;SDS011;3541;53.230;10.518;2022-09-09T05:50:56;4.78;;;3.38;;
7001;SDS011;3541;53.230;10.518;2022-09-09T05:53:22;3.78;;;3.40;;
7001;SDS011;3541;53.230;10.518;2022-09-09T05:55:49;5.47;;;3.67;;
7001;SDS011;3541;53.230;10.518;2022-09-09T05:58:15;4.25;;;3.40;;
7001;SDS011;3541;53.230;10.518;2022-09-09T06:00:42;4.93;;;3.55;;
7001;SDS011;3541;53.230;10.518;2022-09-09T06:03:09;6.15;;;3.53;;
7001;SDS011;3541;53.230;10.518;2022-09-09T06:05:36;4.20;;;3.30;;
7001;SDS011;3541;53.230;10.518;2022-09-09T06:08:04;4.25;;;3.03;;
7001;SDS011;3541;53.230;10.518;2022-09-09T06:10:32;3.80;;;3.38;;
7001;SDS011;3541;53.230;10.518;2022-09-09T06:12:59;4.68;;;3.30;;
7001;SDS011;3541;53.230;10.518;2022-09-09T06:15:25;4.35;;;3.30;;
7001;SDS011;3541;53.230;10.518;2022-09-09T06:17:54;6.30;;;3.17;;
7001;SDS011;3541;53.230;10.518;2022-09-09T06:20:21;5.65;;;3.08;;
7001;SDS011;3541;53.230;10.518;2022-09-09T06:22:48;3.28;;;2.92;;
7001;SDS011;3541;53.230;10.518;2022-09-09T06:25:15;3.03;;;2.72;;
7001;SDS011;3541;53.230;10.518;2022-09-09T06:27:43;3.88;;;2.80;;
7001;SDS011;3541;53.230;10.518;2022-09-09T06:30:14;4.20;;;2.78;;
7001;SDS011;3541;53.230;10.518;2022-09-09T06:32:42;5.60;;;2.92;;
7001;SDS011;3541;53.230;10.518;2022-09-09T06:35:08;5.13;;;3.00;;
7001;SDS011;3541;53.230;10.518;2022-09-09T06:37:35;5.15;;;3.42;;
7001;SDS011;3541;53.230;10.518;2022-09-09T06:40:02;4.20;;;2.80;;
7001;SDS011;3541;53.230;10.518;2022-09-09T06:42:30;3.40;;;3.10;;
7001;SDS011;3541;53.230;10.518;2022-09-09T06:44:57;3.65;;;3.05;;
7001;SDS011;3541;53.230;10.518;2022-09-09T06:47:24;4.03;;;2.90;;
7001;SDS011;3541;53.230;10.518;2022-09-09T06:49:52;4.57;;;2.65;;
7001;SDS011;3541;53.230;10.518;2022-09-09T06:52:18;5.00;;;3.25;;
7001;SDS011;3541;53.230;10.518;2022-09-09T06:54:45;6.00;;;3.42;;
7001;SDS011;3541;53.230;10.518;2022-09-09T06:57:11;3.70;;;2.80;;
7001;SDS011;3541;53.230;10.518;2022-09-09T06:59:39;4.03;;;2.92;;
7001;SDS011;3541;53.230;10.518;2022-09-09T07:02:07;4.07;;;2.75;;
7001;SDS011;3541;53.230;10.518;2022-09-09T07:04:34;4.90;;;2.90;;
7001;SDS011;3541;53.230;10.518;2022-09-09T07:07:01;4.90;;;2.72;;
7001;SDS011;3541;53.230;10.518;2022-09-09T07:09:29;3.13;;;2.80;;
7001;SDS011;3541;53.230;10.518;2022-09-09T07:11:56;3.85;;;2.50;;
7001;SDS011;3541;53.230;10.518;2022-09-09T07:14:24;4.00;;;2.63;;
7001;SDS011;3541;53.230;10.518;2022-09-09T07:16:52;3.55;;;2.72;;
7001;SDS011;3541;53.230;10.518;2022-09-09T07:19:19;3.22;;;2.65;;
7001;SDS011;3541;53.230;10.518;2022-09-09T07:21:45;4.05;;;2.60;;
7001;SDS011;3541;53.230;10.518;2022-09-09T07:24:12;4.55;;;2.80;;
7001;SDS011;3541;53.230;10.518;2022-09-09T07:26:39;5.13;;;2.67;;
7001;SDS011;3541;53.230;10.518;2022-09-09T07:29:05;5.47;;;2.60;;
7001;SDS011;3541;53.230;10.518;2022-09-09T07:31:33;4.60;;;2.90;;
7001;SDS011;3541;53.230;10.518;2022-09-09T07:34:03;5.00;;;2.72;;
7001;SDS011;3541;53.230;10.518;2022-09-09T07:36:30;5.70;;;2.60;;
7001;SDS011;3541;53.230;10.518;2022-09-09T07:38:59;3.88;;;2.70;;
7001;SDS011;3541;53.230;10.518;2022-09-09T07:41:28;3.33;;;1.95;;
7001;SDS011;3541;53.230;10.518;2022-09-09T07:43:57;3.80;;;2.38;;
7001;SDS011;3541;53.230;10.518;2022-09-09T07:46:24;3.83;;;2.42;;
7001;SDS011;3541;53.230;10.518;2022-09-09T07:48:52;2.88;;;2.50;;
7001;SDS011;3541;53.230;10.518;2022-09-09T07:51:23;3.55;;;2.30;;
7001;SDS011;3541;53.230;10.518;2022-09-09T07:53:52;4.38;;;2.63;;
7001;SDS011;3541;53.230;10.518;2022-09-09T07:56:20;3.97;;;2.58;;
7001;SDS011;3541;53.230;10.518;2022-09-09T07:58:47;4.20;;;2.70;;
7001;SDS011;3541;53.230;10.518;2022-09-09T08:01:15;3.10;;;2.72;;
7001;SDS011;3541;53.230;10.518;2022-09-09T08:03:43;5.43;;;2.75;;
7001;SDS011;3541;53.230;10.518;2022-09-09T08:06:10;4.03;;;2.30;;
7001;SDS011;3541;53.230;10.518;2022-09-09T08:08:39;3.42;;;2.60;;
7001;SDS011;3541;53.230;10.518;2022-09-09T08:11:08;3.85;;;2.50;;
7001;SDS011;3541;53.230;10.518;2022-09-09T08:13:37;3.45;;;2.58;;
7001;SDS011;3541;53.230;10.518;2022-09-09T08:16:05;2.67;;;2.28;;
7001;SDS011;3541;53.230;10.518;2022-09-09T08:18:33;3.55;;;2.40;;
7001;SDS011;3541;53.230;10.518;2022-09-09T08:21:07;2.88;;;2.30;;
7001;SDS011;3541;53.230;10.518;2022-09-09T08:23:36;3.75;;;2.63;;
7001;SDS011;3541;53.230;10.518;2022-09-09T08:26:06;4.95;;;2.70;;
7001;SDS011;3541;53.230;10.518;2022-09-09T08:28:35;5.00;;;2.90;;
7001;SDS011;3541;53.230;10.518;2022-09-09T08:31:05;6.38;;;3.20;;
7001;SDS011;3541;53.230;10.518;2022-09-09T08:33:37;5.53;;;2.75;;
7001;SDS011;3541;53.230;10.518;2022-09-09T08:36:04;4.75;;;2.92;;
7001;SDS011;3541;53.230;10.518;2022-09-09T08:38:34;4.88;;;2.70;;
7001;SDS011;3541;53.230;10.518;2022-09-09T08:41:07;4.82;;;2.55;;
7001;SDS011;3541;53.230;10.518;2022-09-09T08:43:58;3.90;;;2.92;;
7001;SDS011;3541;53.230;10.518;2022-09-09T08:46:31;4.15;;;2.60;;
7001;SDS011;3541;53.230;10.518;2022-09-09T08:49:05;4.20;;;2.63;;
7001;SDS011;3541;53.230;10.518;2022-09-09T08:51:42;7.85;;;2.97;;
7001;SDS011;3541;53.230;10.518;2022-09-09T08:54:09;4.40;;;2.80;;
7001;SDS011;3541;53.230;10.518;2022-09-09T08:56:37;5.88;;;2.90;;
7001;SDS011;3541;53.230;10.518;2022-09-09T08:59:04;3.67;;;2.83;;
7001;SDS011;3541;53.230;10.518;2022-09-09T09:01:35;5.72;;;2.60;;
7001;SDS011;3541;53.230;10.518;2022-09-09T09:04:21;4.05;;;2.75;;
7001;SDS011;3541;53.230;10.518;2022-09-09T09:07:07;3.30;;;2.60;;
7001;SDS011;3541;53.230;10.518;2022-09-09T09:09:42;5.05;;;3.00;;
7001;SDS011;3541;53.230;10.518;2022-09-09T09:12:25;4.80;;;3.00;;
7001;SDS011;3541;53.230;10.518;2022-09-09T09:14:55;5.30;;;3.22;;
7001;SDS011;3541;53.230;10.518;2022-09-09T09:17:24;5.80;;;2.70;;
7001;SDS011;3541;53.230;10.518;2022-09-09T09:19:54;5.63;;;2.50;;
7001;SDS011;3541;53.230;10.518;2022-09-09T09:22:21;3.78;;;2.65;;
7001;SDS011;3541;53.230;10.518;2022-09-09T09:24:56;4.22;;;2.70;;
7001;SDS011;3541;53.230;10.518;2022-09-09T09:27:32;3.80;;;2.42;;
7001;SDS011;3541;53.230;10.518;2022-09-09T09:30:00;4.28;;;2.42;;
7001;SDS011;3541;53.230;10.518;2022-09-09T09:32:33;3.17;;;2.40;;
7001;SDS011;3541;53.230;10.518;2022-09-09T09:35:02;3.72;;;2.35;;
7001;SDS011;3541;53.230;10.518;2022-09-09T09:37:35;5.18;;;2.60;;
7001;SDS011;3541;53.230;10.518;2022-09-09T09:40:09;3.10;;;2.30;;
7001;SDS011;3541;53.230;10.518;2022-09-09T09:42:37;2.95;;;2.53;;
7001;SDS011;3541;53.230;10.518;2022-09-09T09:45:14;5.82;;;2.60;;
7001;SDS011;3541;53.230;10.518;2022-09-09T09:47:46;4.75;;;2.78;;
7001;SDS011;3541;53.230;10.518;2022-09-09T09:50:24;4.28;;;2.42;;
7001;SDS011;3541;53.230;10.518;2022-09-09T09:52:53;4.93;;;2.70;;
7001;SDS011;3541;53.230;10.518;2022-09-09T09:55:22;4.97;;;2.58;;
7001;SDS011;3541;53.230;10.518;2022-09-09T09:57:51;4.97;;;2.60;;
7001;SDS011;3541;53.230;10.518;2022-09-09T10:00:19;5.75;;;2.63;;
7001;SDS011;3541;53.230;10.518;2022-09-09T10:02:47;6.65;;;2.85;;
7001;SDS011;3541;53.230;10.518;2022-09-09T10:05:17;8.55;;;2.63;;
7001;SDS011;3541;53.230;10.518;2022-09-09T10:07:46;4.60;;;2.45;;
7001;SDS011;3541;53.230;10.518;2022-09-09T10:10:15;3.65;;;2.70;;
7001;SDS011;3541;53.230;10.518;2022-09-09T10:12:50;3.05;;;2.75;;
7001;SDS011;3541;53.230;10.518;2022-09-09T10:15:28;5.88;;;2.63;;
7001;SDS011;3541;53.230;10.518;2022-09-09T10:17:59;5.00;;;2.65;;
7001;SDS011;3541;53.230;10.518;2022-09-09T10:20:39;3.72;;;2.70;;
7001;SDS011;3541;53.230;10.518;2022-09-09T10:23:15;4.28;;;2.85;;
7001;SDS011;3541;53.230;10.518;2022-09-09T10:25:55;4.55;;;2.17;;
7001;SDS011;3541;53.230;10.518;2022-09-09T10:28:36;4.07;;;2.25;;
7001;SDS011;3541;53.230;10.518;2022-09-09T10:31:19;2.85;;;2.33;;
7001;SDS011;3541;53.230;10.518;2022-09-09T10:33:51;4.25;;;2.30;;
7001;SDS011;3541;53.230;10.518;2022-09-09T10:36:31;3.17;;;2.28;;
7001;SDS011;3541;53.230;10.518;2022-09-09T10:38:58;5.70;;;2.60;;
7001;SDS011;3541;53.230;10.518;2022-09-09T10:41:39;4.18;;;2.30;;
7001;SDS011;3541;53.230;10.518;2022-09-09T10:47:24;6.00;;;2.20;;
7001;SDS011;3541;53.230;10.518;2022-09-09T10:50:06;3.15;;;1.83;;
7001;SDS011;3541;53.230;10.518;2022-09-09T10:52:49;3.50;;;1.90;;
7001;SDS011;3541;53.230;10.518;2022-09-09T10:55:27;2.78;;;2.00;;
7001;SDS011;3541;53.230;10.518;2022-09-09T10:58:01;1.63;;;1.52;;
7001;SDS011;3541;53.230;10.518;2022-09-09T11:00:31;4.63;;;2.03;;
7001;SDS011;3541;53.230;10.518;2022-09-09T11:03:06;2.80;;;1.95;;
7001;SDS011;3541;53.230;10.518;2022-09-09T11:05:40;4.28;;;1.80;;
7001;SDS011;3541;53.230;10.518;2022-09-09T11:08:10;3.05;;;1.45;;
7001;SDS011;3541;53.230;10.518;2022-09-09T11:10:42;3.05;;;1.70;;
7001;SDS011;3541;53.230;10.518;2022-09-09T11:13:14;5.72;;;2.10;;
7001;SDS011;3541;53.230;10.518;2022-09-09T11:15:46;2.38;;;1.40;;
7001;SDS011;3541;53.230;10.518;2022-09-09T11:18:18;3.47;;;1.58;;
7001;SDS011;3541;53.230;10.518;2022-09-09T11:20:47;2.10;;;1.40;;
7001;SDS011;3541;53.230;10.518;2022-09-09T11:23:15;2.90;;;1.65;;
7001;SDS011;3541;53.230;10.518;2022-09-09T11:25:46;2.42;;;1.60;;
7001;SDS011;3541;53.230;10.518;2022-09-09T11:28:22;4.45;;;1.60;;
7001;SDS011;3541;53.230;10.518;2022-09-09T11:31:01;4.15;;;1.50;;
7001;SDS011;3541;53.230;10.518;2022-09-09T11:33:55;2.78;;;1.48;;
7001;SDS011;3541;53.230;10.518;2022-09-09T11:36:35;3.28;;;1.60;;
7001;SDS011;3541;53.230;10.518;2022-09-09T11:39:19;1.55;;;1.25;;
7001;SDS011;3541;53.230;10.518;2022-09-09T11:42:22;2.42;;;1.60;;
7001;SDS011;3541;53.230;10.518;2022-09-09T11:44:50;3.58;;;1.88;;
7001;SDS011;3541;53.230;10.518;2022-09-09T11:47:22;4.88;;;1.90;;
7001;SDS011;3541;53.230;10.518;2022-09-09T11:49:55;2.67;;;1.77;;
7001;SDS011;3541;53.230;10.518;2022-09-09T11:52:36;3.33;;;2.25;;
7001;SDS011;3541;53.230;10.518;2022-09-09T11:55:08;4.28;;;1.85;;
7001;SDS011;3541;53.230;10.518;2022-09-09T11:57:37;2.88;;;1.85;;
7001;SDS011;3541;53.230;10.518;2022-09-09T12:00:05;2.78;;;1.83;;
7001;SDS011;3541;53.230;10.518;2022-09-09T12:02:33;3.90;;;2.00;;
7001;SDS011;3541;53.230;10.518;2022-09-09T12:05:04;4.97;;;2.30;;
7001;SDS011;3541;53.230;10.518;2022-09-09T12:07:35;5.63;;;2.10;;
7001;SDS011;3541;53.230;10.518;2022-09-09T12:10:05;3.45;;;1.90;;
7001;SDS011;3541;53.230;10.518;2022-09-09T12:12:46;3.60;;;2.15;;
7001;SDS011;3541;53.230;10.518;2022-09-09T12:15:17;2.40;;;1.73;;
7001;SDS011;3541;53.230;10.518;2022-09-09T12:17:47;4.28;;;1.92;;
7001;SDS011;3541;53.230;10.518;2022-09-09T12:20:18;3.33;;;1.75;;
7001;SDS011;3541;53.230;10.518;2022-09-09T12:22:50;1.90;;;1.58;;
7001;SDS011;3541;53.230;10.518;2022-09-09T12:25:26;4.13;;;1.70;;
7001;SDS011;3541;53.230;10.518;2022-09-09T12:28:02;4.70;;;1.83;;
7001;SDS011;3541;53.230;10.518;2022-09-09T12:30:36;2.58;;;1.77;;
7001;SDS011;3541;53.230;10.518;2022-09-09T12:33:11;2.22;;;1.70;;
7001;SDS011;3541;53.230;10.518;2022-09-09T12:35:41;5.50;;;1.98;;
7001;SDS011;3541;53.230;10.518;2022-09-09T12:38:11;2.72;;;1.65;;
7001;SDS011;3541;53.230;10.518;2022-09-09T12:40:41;2.75;;;1.88;;
7001;SDS011;3541;53.230;10.518;2022-09-09T12:43:16;2.40;;;1.70;;
7001;SDS011;3541;53.230;10.518;2022-09-09T12:45:44;2.63;;;1.83;;
7001;SDS011;3541;53.230;10.518;2022-09-09T12:48:11;2.70;;;1.77;;
7001;SDS011;3541;53.230;10.518;2022-09-09T12:50:44;2.63;;;1.90;;
7001;SDS011;3541;53.230;10.518;2022-09-09T12:53:22;2.58;;;1.30;;
7001;SDS011;3541;53.230;10.518;2022-09-09T12:55:52;3.13;;;1.70;;
7001;SDS011;3541;53.230;10.518;2022-09-09T12:58:20;1.77;;;1.65;;
7001;SDS011;3541;53.230;10.518;2022-09-09T13:00:51;3.80;;;2.08;;
7001;SDS011;3541;53.230;10.518;2022-09-09T13:03:21;2.15;;;1.67;;
7001;SDS011;3541;53.230;10.518;2022-09-09T13:05:51;2.28;;;1.88;;
7001;SDS011;3541;53.230;10.518;2022-09-09T13:08:18;3.42;;;1.80;;
7001;SDS011;3541;53.230;10.518;2022-09-09T13:10:46;2.00;;;1.80;;
7001;SDS011;3541;53.230;10.518;2022-09-09T13:13:17;4.65;;;2.10;;
7001;SDS011;3541;53.230;10.518;2022-09-09T13:15:48;3.95;;;2.35;;
7001;SDS011;3541;53.230;10.518;2022-09-09T13:18:16;3.40;;;2.33;;
7001;SDS011;3541;53.230;10.518;2022-09-09T13:20:46;3.75;;;2.03;;
7001;SDS011;3541;53.230;10.518;2022-09-09T13:23:15;2.53;;;1.90;;
7001;SDS011;3541;53.230;10.518;2022-09-09T13:25:51;3.45;;;2.40;;
7001;SDS011;3541;53.230;10.518;2022-09-09T13:28:20;3.08;;;2.30;;
7001;SDS011;3541;53.230;10.518;2022-09-09T13:30:55;3.80;;;2.28;;
7001;SDS011;3541;53.230;10.518;2022-09-09T13:33:28;2.85;;;2.10;;
7001;SDS011;3541;53.230;10.518;2022-09-09T13:35:57;4.75;;;2.40;;
7001;SDS011;3541;53.230;10.518;2022-09-09T13:38:29;2.95;;;2.00;;
7001;SDS011;3541;53.230;10.518;2022-09-09T13:40:58;3.70;;;2.22;;
7001;SDS011;3541;53.230;10.518;2022-09-09T13:43:29;3.50;;;2.20;;
7001;SDS011;3541;53.230;10.518;2022-09-09T13:45:59;4.55;;;2.60;;
7001;SDS011;3541;53.230;10.518;2022-09-09T13:48:27;4.38;;;2.10;;
7001;SDS011;3541;53.230;10.518;2022-09-09T13:50:55;3.97;;;2.45;;
7001;SDS011;3541;53.230;10.518;2022-09-09T13:53:24;4.22;;;2.53;;
7001;SDS011;3541;53.230;10.518;2022-09-09T13:55:52;4.43;;;2.45;;
7001;SDS011;3541;53.230;10.518;2022-09-09T13:58:19;4.25;;;2.67;;
7001;SDS011;3541;53.230;10.518;2022-09-09T14:00:47;3.75;;;2.60;;
7001;SDS011;3541;53.230;10.518;2022-09-09T14:03:14;3.78;;;2.50;;
7001;SDS011;3541;53.230;10.518;2022-09-09T14:05:41;2.60;;;2.10;;
7001;SDS011;3541;53.230;10.518;2022-09-09T14:08:11;4.93;;;2.55;;
7001;SDS011;3541;53.230;10.518;2022-09-09T14:10:50;5.55;;;2.53;;
7001;SDS011;3541;53.230;10.518;2022-09-09T14:13:20;2.63;;;1.95;;
7001;SDS011;3541;53.230;10.518;2022-09-09T14:15:48;4.93;;;2.53;;
7001;SDS011;3541;53.230;10.518;2022-09-09T14:18:15;4.40;;;2.50;;
7001;SDS011;3541;53.230;10.518;2022-09-09T14:20:42;4.38;;;2.22;;
7001;SDS011;3541;53.230;10.518;2022-09-09T14:23:10;3.92;;;2.70;;
7001;SDS011;3541;53.230;10.518;2022-09-09T14:25:39;5.43;;;2.72;;
7001;SDS011;3541;53.230;10.518;2022-09-09T14:28:08;4.10;;;2.30;;
7001;SDS011;3541;53.230;10.518;2022-09-09T14:30:37;3.85;;;2.00;;
7001;SDS011;3541;53.230;10.518;2022-09-09T14:33:04;4.57;;;1.48;;
7001;SDS011;3541;53.230;10.518;2022-09-09T14:35:31;2.70;;;1.20;;
7001;SDS011;3541;53.230;10.518;2022-09-09T14:37:58;5.13;;;1.48;;
7001;SDS011;3541;53.230;10.518;2022-09-09T14:40:26;3.80;;;1.50;;
7001;SDS011;3541;53.230;10.518;2022-09-09T14:42:52;3.53;;;1.60;;
7001;SDS011;3541;53.230;10.518;2022-09-09T14:45:22;4.05;;;1.40;;
7001;SDS011;3541;53.230;10.518;2022-09-09T14:47:49;2.42;;;1.40;;
7001;SDS011;3541;53.230;10.518;2022-09-09T14:50:16;1.67;;;1.17;;
7001;SDS011;3541;53.230;10.518;2022-09-09T14:52:43;3.28;;;1.85;;
7001;SDS011;3541;53.230;10.518;2022-09-09T14:55:10;1.65;;;1.17;;
7001;SDS011;3541;53.230;10.518;2022-09-09T14:57:37;2.15;;;1.23;;
7001;SDS011;3541;53.230;10.518;2022-09-09T15:00:04;1.98;;;1.42;;
7001;SDS011;3541;53.230;10.518;2022-09-09T15:02:33;1.65;;;1.35;;
7001;SDS011;3541;53.230;10.518;2022-09-09T15:05:00;3.50;;;1.55;;
7001;SDS011;3541;53.230;10.518;2022-09-09T15:07:26;1.90;;;1.42;;
7001;SDS011;3541;53.230;10.518;2022-09-09T15:09:53;2.83;;;1.50;;
7001;SDS011;3541;53.230;10.518;2022-09-09T15:12:20;5.32;;;1.60;;
7001;SDS011;3541;53.230;10.518;2022-09-09T15:14:47;2.03;;;1.65;;
7001;SDS011;3541;53.230;10.518;2022-09-09T15:17:15;3.55;;;1.90;;
7001;SDS011;3541;53.230;10.518;2022-09-09T15:19:43;3.28;;;1.90;;
7001;SDS011;3541;53.230;10.518;2022-09-09T15:22:10;4.28;;;1.70;;